Main page
METAR-TAF:

METAR-TAF

Airports :

Mitiga International Airport

Tripoli, Libya

latitude: 32-54N, longitude: 13-17E, elevation: 11 m

METAR: missing

Time: 06:12 (04:12 UTC)

Forecast

The report was made 17 hours and 12 minutes ago, at 11:00 UTC
Forecast valid from 02 at 12 UTC to 03 at 12 UTC
Wind 14 kt from the East/Northeast
Visibility 10 km or more
Few clouds at a height of 2500 ft
Becoming
from 03 at 02 UTC to 03 at 04 UTC
Wind 2 kt from variable directions
Probability 30%
from 03 at 04 UTC to 03 at 06 UTC
Visibility: 5000 m
mist
Becoming
from 03 at 10 UTC to 03 at 12 UTC
Wind 14 kt from the East/Northeast

TAF: HLLM 021100Z 0212/0312 06014KT 9999 FEW025 BECMG 0302/0304 VRB02KT PROB30 0304/0306 5000 BR BECMG 0310/0312 06014KT

Weather observations and forecasts of more than 4000 airports (METAR and TAF reports).

The available stations are represented by yellow and red dots on the map.

Hover mouse over dot to see the name of the station.

Then click to see weather observations and forecasts.

To change the map : click on the green buttons with a black cross to zoom in, on the green button with a dash to zoom out, or on the green arrows for adjacent maps.


METAR-TAF: